Time;durP1;ratioP1;P1;durP2;ratioP2;P2;SDS_P1;SDS_P2;PMS_P1;PMS_P2;Temp;Humidity;BMP_temperature;BMP_pressure;BME280_temperature;BME280_humidity;BME280_pressure;Samples;Min_cycle;Max_cycle;Signal;HPM_P1;HPM_P2
2022/03/21 00:02:15;;;;;;;;;;;19.10;48.00;;;;;;5019610;28;20278;-50
2022/03/21 00:04:40;;;;;;;;;;;19.10;48.00;;;;;;5020188;28;19952;-52
2022/03/21 00:07:06;;;;;;;;;;;19.10;47.90;;;;;;5019930;28;19913;-51
2022/03/21 00:09:31;;;;;;;;;;;19.00;48.00;;;;;;5018997;28;20181;-53
2022/03/21 00:11:57;;;;;;;;;;;19.00;48.10;;;;;;5019332;28;20263;-53
2022/03/21 00:14:22;;;;;;;;;;;18.90;48.10;;;;;;5019270;28;19921;-51
2022/03/21 00:16:48;;;;;;;;;;;19.00;48.30;;;;;;5018938;28;19956;-50
2022/03/21 00:19:14;;;;;;;;;;;18.90;48.20;;;;;;5018654;28;19940;-51
2022/03/21 00:21:39;;;;;;;;;;;18.90;48.40;;;;;;5019298;28;20426;-52
2022/03/21 00:24:05;;;;;;;;;;;18.90;48.30;;;;;;5019741;28;19967;-54
2022/03/21 00:26:30;;;;;;;;;;;18.80;48.30;;;;;;5019286;28;19996;-54
2022/03/21 00:28:56;;;;;;;;;;;18.80;48.30;;;;;;5019365;28;19920;-52
2022/03/21 00:31:21;;;;;;;;;;;18.80;48.40;;;;;;5019667;28;19949;-54
2022/03/21 00:33:47;;;;;;;;;;;18.70;48.40;;;;;;5019144;28;19947;-52
2022/03/21 00:36:12;;;;;;;;;;;18.70;48.50;;;;;;5019395;28;19913;-51
2022/03/21 00:38:38;;;;;;;;;;;18.70;48.60;;;;;;5019092;28;19925;-55
2022/03/21 00:41:04;;;;;;;;;;;18.70;48.60;;;;;;5019736;28;20302;-54
2022/03/21 00:43:30;;;;;;;;;;;18.70;48.60;;;;;;5018785;28;19918;-52
2022/03/21 00:45:57;;;;;;;;;;;18.70;48.50;;;;;;5019199;28;19921;-55
2022/03/21 00:48:23;;;;;;;;;;;18.80;48.60;;;;;;5018656;28;20290;-53
2022/03/21 00:50:48;;;;;;;;;;;18.80;48.50;;;;;;5016392;28;19921;-52
2022/03/21 00:53:14;;;;;;;;;;;18.80;48.60;;;;;;5012948;28;20315;-54
2022/03/21 00:55:39;;;;;;;;;;;18.80;48.60;;;;;;5015949;28;20385;-53
2022/03/21 00:58:05;;;;;;;;;;;18.70;48.50;;;;;;5013463;28;20352;-51
2022/03/21 01:00:31;;;;;;;;;;;18.80;48.60;;;;;;4981527;28;19921;-53
2022/03/21 01:02:57;;;;;;;;;;;18.80;48.60;;;;;;5011045;28;20214;-52
2022/03/21 01:05:25;;;;;;;;;;;18.80;48.60;;;;;;5016676;28;20549;-54
2022/03/21 01:07:50;;;;;;;;;;;18.70;48.50;;;;;;5013325;28;19921;-53
2022/03/21 01:10:16;;;;;;;;;;;18.70;48.60;;;;;;5018790;28;19966;-53
2022/03/21 01:12:42;;;;;;;;;;;18.70;48.50;;;;;;4995259;28;19924;-54
2022/03/21 01:15:08;;;;;;;;;;;18.70;48.60;;;;;;5017380;28;19913;-52
2022/03/21 01:17:33;;;;;;;;;;;18.60;48.50;;;;;;5029943;22;20485;-56
2022/03/21 01:19:59;;;;;;;;;;;18.60;48.40;;;;;;5018455;28;19917;-56
2022/03/21 01:22:24;;;;;;;;;;;18.60;48.60;;;;;;5018603;28;19919;-58
2022/03/21 01:24:50;;;;;;;;;;;18.60;48.60;;;;;;5018909;28;20490;-57
2022/03/21 01:27:15;;;;;;;;;;;18.60;48.80;;;;;;5017279;28;19920;-55
2022/03/21 01:29:41;;;;;;;;;;;18.50;48.60;;;;;;5020339;28;19913;-52
2022/03/21 01:32:06;;;;;;;;;;;18.60;48.70;;;;;;5022796;28;20136;-57
2022/03/21 01:34:32;;;;;;;;;;;18.50;48.80;;;;;;5022684;28;19917;-56
2022/03/21 01:36:57;;;;;;;;;;;18.50;48.90;;;;;;5021688;28;20580;-55
2022/03/21 01:39:23;;;;;;;;;;;18.50;48.90;;;;;;5021876;28;19917;-56
2022/03/21 01:41:49;;;;;;;;;;;18.40;49.00;;;;;;5022662;28;19917;-55
2022/03/21 01:44:14;;;;;;;;;;;18.40;49.10;;;;;;5022937;28;19921;-54
2022/03/21 01:46:40;;;;;;;;;;;18.40;49.10;;;;;;5022222;28;19913;-55
2022/03/21 01:49:07;;;;;;;;;;;18.40;49.10;;;;;;5021577;28;19913;-54
2022/03/21 01:51:32;;;;;;;;;;;18.40;49.10;;;;;;5021610;28;19924;-50
2022/03/21 01:56:42;;;;;;;;;;;18.40;49.10;;;;;;5021805;28;19924;-57
2022/03/21 01:59:08;;;;;;;;;;;18.50;49.10;;;;;;5022141;28;19913;-53
2022/03/21 02:01:33;;;;;;;;;;;18.40;49.00;;;;;;5020976;28;19993;-56
2022/03/21 02:03:59;;;;;;;;;;;18.40;48.90;;;;;;5022729;28;19921;-55
2022/03/21 02:06:28;;;;;;;;;;;18.40;49.00;;;;;;5021939;28;19923;-56
2022/03/21 02:08:57;;;;;;;;;;;18.30;49.10;;;;;;5021935;28;20416;-53
2022/03/21 02:11:23;;;;;;;;;;;18.30;49.20;;;;;;5021971;28;19994;-55
2022/03/21 02:13:48;;;;;;;;;;;18.30;49.90;;;;;;5004231;28;20378;-53
2022/03/21 02:16:14;;;;;;;;;;;18.30;49.30;;;;;;5003920;28;20332;-56
2022/03/21 02:18:39;;;;;;;;;;;18.30;49.30;;;;;;5021396;28;20017;-54
2022/03/21 02:21:04;;;;;;;;;;;18.30;49.30;;;;;;5004357;28;19913;-55
2022/03/21 02:23:34;;;;;;;;;;;18.30;49.30;;;;;;5004420;28;19913;-57
2022/03/21 02:26:00;;;;;;;;;;;18.30;49.30;;;;;;5021479;28;20924;-56
2022/03/21 02:28:25;;;;;;;;;;;18.30;49.20;;;;;;5020946;28;19917;-56
2022/03/21 02:30:51;;;;;;;;;;;18.30;49.30;;;;;;5020861;28;19917;-56
2022/03/21 02:33:16;;;;;;;;;;;18.30;49.20;;;;;;5003305;28;20043;-57
2022/03/21 02:35:46;;;;;;;;;;;18.30;49.00;;;;;;5021658;28;19948;-54
2022/03/21 02:38:12;;;;;;;;;;;18.40;49.00;;;;;;5021523;28;19919;-57
2022/03/21 02:40:37;;;;;;;;;;;18.40;48.90;;;;;;5020029;28;19917;-57
2022/03/21 02:43:03;;;;;;;;;;;18.30;49.00;;;;;;5021754;28;19988;-54
2022/03/21 02:45:28;;;;;;;;;;;18.30;49.20;;;;;;5022834;28;19948;-56
2022/03/21 02:47:54;;;;;;;;;;;18.30;49.20;;;;;;5022563;28;19917;-56
2022/03/21 02:50:25;;;;;;;;;;;18.30;49.10;;;;;;5022064;28;19928;-56
2022/03/21 02:52:51;;;;;;;;;;;18.30;49.00;;;;;;5003775;28;19917;-54
2022/03/21 02:55:16;;;;;;;;;;;18.30;48.90;;;;;;5003883;28;19920;-56
2022/03/21 02:57:42;;;;;;;;;;;18.30;48.90;;;;;;5021610;28;19913;-56
2022/03/21 03:00:07;;;;;;;;;;;18.40;48.90;;;;;;5003208;28;19913;-55
2022/03/21 03:02:33;;;;;;;;;;;18.40;48.70;;;;;;5021046;28;19913;-54
2022/03/21 03:04:58;;;;;;;;;;;18.40;48.70;;;;;;5021565;28;20664;-56
2022/03/21 03:07:24;;;;;;;;;;;18.40;48.60;;;;;;5020744;28;19963;-55
2022/03/21 03:09:49;;;;;;;;;;;18.40;48.60;;;;;;5020357;28;19913;-52
2022/03/21 03:12:15;;;;;;;;;;;18.50;48.50;;;;;;5020592;28;20394;-53
2022/03/21 03:14:40;;;;;;;;;;;18.50;48.50;;;;;;5020326;28;19913;-56
2022/03/21 03:17:06;;;;;;;;;;;18.50;48.40;;;;;;5020439;28;20032;-57
2022/03/21 03:19:31;;;;;;;;;;;18.50;48.40;;;;;;5020436;28;19939;-55
2022/03/21 03:21:57;;;;;;;;;;;18.50;48.40;;;;;;5020293;28;19920;-53
2022/03/21 03:24:23;;;;;;;;;;;18.60;48.30;;;;;;5002579;28;19913;-53
2022/03/21 03:26:48;;;;;;;;;;;18.60;48.30;;;;;;5020832;28;19994;-55
2022/03/21 03:29:14;;;;;;;;;;;18.60;48.10;;;;;;5020272;28;20289;-54
2022/03/21 03:31:39;;;;;;;;;;;18.70;48.10;;;;;;5000924;28;19917;-56
2022/03/21 03:34:05;;;;;;;;;;;18.70;48.00;;;;;;5019825;28;19917;-57
2022/03/21 03:36:30;;;;;;;;;;;18.60;47.90;;;;;;5020411;28;19975;-54
2022/03/21 03:38:56;;;;;;;;;;;18.70;47.80;;;;;;5019670;28;19958;-56
2022/03/21 03:41:21;;;;;;;;;;;18.70;47.80;;;;;;5020008;28;20381;-52
2022/03/21 03:43:50;;;;;;;;;;;18.70;47.70;;;;;;5019788;28;19921;-54
2022/03/21 03:46:16;;;;;;;;;;;18.70;47.60;;;;;;5020180;28;19922;-57
2022/03/21 03:48:42;;;;;;;;;;;18.70;47.50;;;;;;5002138;28;19976;-56
2022/03/21 03:51:08;;;;;;;;;;;18.80;47.40;;;;;;5002365;28;19917;-54
2022/03/21 03:53:33;;;;;;;;;;;18.80;47.40;;;;;;5019838;28;19917;-56
2022/03/21 03:55:59;;;;;;;;;;;18.80;47.40;;;;;;5020007;28;19924;-57
2022/03/21 03:58:24;;;;;;;;;;;18.80;47.30;;;;;;5019230;28;19963;-55
2022/03/21 04:00:51;;;;;;;;;;;18.80;47.30;;;;;;5020023;28;19925;-54
2022/03/21 04:06:01;;;;;;;;;;;18.80;47.30;;;;;;5020382;28;19920;-57
2022/03/21 04:08:26;;;;;;;;;;;18.80;47.30;;;;;;5017501;28;20319;-55
2022/03/21 04:10:52;;;;;;;;;;;18.80;47.10;;;;;;5019132;28;19928;-56
2022/03/21 04:13:17;;;;;;;;;;;18.80;47.10;;;;;;5019411;28;19968;-54
2022/03/21 04:15:43;;;;;;;;;;;18.80;47.10;;;;;;5019766;28;20409;-57
2022/03/21 04:18:08;;;;;;;;;;;18.80;47.20;;;;;;5019509;28;19921;-53
2022/03/21 04:20:36;;;;;;;;;;;18.80;47.20;;;;;;5019719;28;20293;-56
2022/03/21 04:23:02;;;;;;;;;;;18.80;47.10;;;;;;5019612;28;19913;-52
2022/03/21 04:25:27;;;;;;;;;;;18.80;47.10;;;;;;5019465;28;19913;-54
2022/03/21 04:27:53;;;;;;;;;;;18.70;47.70;;;;;;5019614;28;19917;-56
2022/03/21 04:30:18;;;;;;;;;;;18.80;47.10;;;;;;5019719;28;19982;-55
2022/03/21 04:32:44;;;;;;;;;;;18.80;47.00;;;;;;5019177;28;19928;-53
2022/03/21 04:35:12;;;;;;;;;;;18.80;47.00;;;;;;5019439;28;19972;-55
2022/03/21 04:37:38;;;;;;;;;;;18.70;46.90;;;;;;5019529;28;19913;-55
2022/03/21 04:40:04;;;;;;;;;;;18.70;46.90;;;;;;5019414;28;19921;-54
2022/03/21 04:42:29;;;;;;;;;;;18.70;46.90;;;;;;5019030;28;19924;-56
2022/03/21 04:44:55;;;;;;;;;;;18.80;46.90;;;;;;5019182;28;19917;-54
2022/03/21 04:47:21;;;;;;;;;;;18.80;46.80;;;;;;5019362;28;19914;-52
2022/03/21 04:49:46;;;;;;;;;;;18.80;46.80;;;;;;5019181;28;19913;-57
2022/03/21 04:52:12;;;;;;;;;;;18.70;46.70;;;;;;5018893;28;19923;-53
2022/03/21 04:54:38;;;;;;;;;;;18.70;47.30;;;;;;5018681;28;19913;-56
2022/03/21 04:57:06;;;;;;;;;;;18.80;46.70;;;;;;5019754;28;19949;-55
2022/03/21 04:59:32;;;;;;;;;;;18.70;46.60;;;;;;5014887;28;19913;-55
2022/03/21 05:01:57;;;;;;;;;;;18.70;46.60;;;;;;5019254;28;19917;-54
2022/03/21 05:04:23;;;;;;;;;;;18.70;46.60;;;;;;5018568;28;19913;-55
2022/03/21 05:06:48;;;;;;;;;;;18.70;46.60;;;;;;5023725;28;19940;-52
2022/03/21 05:09:14;;;;;;;;;;;18.70;46.50;;;;;;5022739;28;19914;-52
2022/03/21 05:11:40;;;;;;;;;;;18.70;46.40;;;;;;5022850;28;19949;-54
2022/03/21 05:14:05;;;;;;;;;;;18.70;46.50;;;;;;5023279;28;19927;-54
2022/03/21 05:16:31;;;;;;;;;;;18.70;46.50;;;;;;5022943;28;20300;-53
2022/03/21 05:18:57;;;;;;;;;;;18.70;46.40;;;;;;5010696;28;19917;-52
2022/03/21 05:21:22;;;;;;;;;;;18.70;46.40;;;;;;5022764;28;19914;-56
2022/03/21 05:32:00;;;;;;;;;;;18.80;46.50;;;;;;5023264;28;19924;-57
2022/03/21 05:37:09;;;;;;;;;;;18.80;46.70;;;;;;5022180;28;19925;-55
2022/03/21 05:40:31;;;;;;;;;;;18.80;47.00;;;;;;5022633;28;19913;-56
2022/03/21 05:42:20;;;;;;;;;;;18.80;47.00;;;;;;5022884;28;19921;-55
2022/03/21 05:44:45;;;;;;;;;;;18.90;47.10;;;;;;5022225;28;20491;-56
2022/03/21 05:47:11;;;;;;;;;;;18.90;47.10;;;;;;5022940;28;19952;-58
2022/03/21 05:49:36;;;;;;;;;;;19.00;47.20;;;;;;5021961;28;19914;-55
2022/03/21 05:52:02;;;;;;;;;;;19.00;47.20;;;;;;5022160;28;20185;-55
2022/03/21 05:54:27;;;;;;;;;;;19.00;47.30;;;;;;5022312;28;20389;-55
2022/03/21 05:56:53;;;;;;;;;;;19.00;47.40;;;;;;5022012;28;19924;-58
2022/03/21 06:02:03;;;;;;;;;;;18.90;47.60;;;;;;5022317;28;20496;-55
2022/03/21 06:04:29;;;;;;;;;;;19.00;47.70;;;;;;5021509;28;19925;-56
2022/03/21 06:06:55;;;;;;;;;;;19.00;47.70;;;;;;5021243;28;19913;-56
2022/03/21 06:09:20;;;;;;;;;;;19.10;47.80;;;;;;5021728;28;20536;-52
2022/03/21 06:11:48;;;;;;;;;;;19.10;47.70;;;;;;5021820;28;19923;-54
2022/03/21 06:14:14;;;;;;;;;;;19.10;47.70;;;;;;5021987;28;20000;-57
2022/03/21 06:16:40;;;;;;;;;;;19.10;47.60;;;;;;5022515;28;19954;-56
2022/03/21 06:19:05;;;;;;;;;;;19.10;47.50;;;;;;5021976;28;20432;-57
2022/03/21 06:21:31;;;;;;;;;;;19.10;47.40;;;;;;5021759;28;19913;-58
2022/03/21 06:23:56;;;;;;;;;;;19.10;47.70;;;;;;5021508;28;19917;-57
2022/03/21 06:26:22;;;;;;;;;;;19.10;48.10;;;;;;5021377;28;19996;-57
2022/03/21 06:28:47;;;;;;;;;;;19.00;48.40;;;;;;5020019;28;19913;-55
2022/03/21 06:31:13;;;;;;;;;;;19.00;48.60;;;;;;5001475;28;20401;-57
2022/03/21 06:33:38;;;;;;;;;;;18.90;48.60;;;;;;5020738;28;19928;-54
2022/03/21 06:36:04;;;;;;;;;;;18.90;48.70;;;;;;5021133;28;19928;-55
2022/03/21 06:38:30;;;;;;;;;;;18.90;48.80;;;;;;5020971;28;20358;-54
2022/03/21 06:40:55;;;;;;;;;;;18.80;48.60;;;;;;5021545;28;19913;-55
2022/03/21 06:43:22;;;;;;;;;;;18.80;48.60;;;;;;5021730;28;19913;-54
2022/03/21 06:45:54;;;;;;;;;;;18.80;48.50;;;;;;5020018;28;20285;-53
2022/03/21 06:48:20;;;;;;;;;;;18.80;48.50;;;;;;5021437;28;19917;-53
2022/03/21 06:50:48;;;;;;;;;;;18.70;48.30;;;;;;5021366;28;19914;-54
2022/03/21 06:53:14;;;;;;;;;;;18.70;48.30;;;;;;5021609;28;19917;-56
2022/03/21 06:55:40;;;;;;;;;;;18.60;48.20;;;;;;5003213;28;19920;-52
2022/03/21 06:58:08;;;;;;;;;;;18.60;48.20;;;;;;5021730;28;20552;-55
2022/03/21 07:00:34;;;;;;;;;;;18.60;48.20;;;;;;5020469;28;19952;-52
2022/03/21 07:03:00;;;;;;;;;;;18.60;47.90;;;;;;5021182;28;20010;-52
2022/03/21 07:05:27;;;;;;;;;;;18.60;47.90;;;;;;5020697;28;20151;-55
2022/03/21 07:07:53;;;;;;;;;;;18.50;48.00;;;;;;5020854;28;19913;-55
2022/03/21 07:10:18;;;;;;;;;;;18.50;48.00;;;;;;5020077;28;19928;-52
2022/03/21 07:12:43;;;;;;;;;;;18.50;47.50;;;;;;5020904;28;19957;-53
2022/03/21 07:15:09;;;;;;;;;;;18.50;48.20;;;;;;5020738;28;20293;-59
2022/03/21 07:17:34;;;;;;;;;;;18.60;50.30;;;;;;5035663;22;19932;-56
2022/03/21 07:20:00;;;;;;;;;;;18.40;47.90;;;;;;5017178;28;19921;-56
2022/03/21 07:22:25;;;;;;;;;;;18.30;47.90;;;;;;5002841;28;20278;-55
2022/03/21 07:24:51;;;;;;;;;;;18.20;47.70;;;;;;5018983;28;19913;-57
2022/03/21 07:27:16;;;;;;;;;;;18.20;47.60;;;;;;5018934;28;20366;-60
2022/03/21 07:29:42;;;;;;;;;;;18.20;47.60;;;;;;5019568;28;19917;-57
2022/03/21 07:32:07;;;;;;;;;;;18.10;47.60;;;;;;5021686;28;19921;-56
2022/03/21 07:34:33;;;;;;;;;;;18.10;47.70;;;;;;5020615;28;20405;-56
2022/03/21 07:36:58;;;;;;;;;;;18.10;47.60;;;;;;5026126;28;20852;-56
2022/03/21 07:39:24;;;;;;;;;;;18.10;47.60;;;;;;5020048;28;20000;-56
2022/03/21 07:41:49;;;;;;;;;;;18.10;47.60;;;;;;5021785;28;19967;-55
2022/03/21 07:47:17;;;;;;;;;;;18.20;47.70;;;;;;5020339;28;20455;-57
2022/03/21 07:47:22;;;;;;;;;;;18.10;47.90;;;;;;5019899;28;19924;-56
2022/03/21 07:49:48;;;;;;;;;;;18.10;47.90;;;;;;5019547;28;19913;-54
2022/03/21 07:52:13;;;;;;;;;;;18.10;47.80;;;;;;5021003;28;19913;-57
2022/03/21 07:54:42;;;;;;;;;;;18.00;47.80;;;;;;5018827;28;19920;-54
2022/03/21 07:57:08;;;;;;;;;;;18.10;48.00;;;;;;5020733;28;20369;-55
2022/03/21 07:59:34;;;;;;;;;;;18.00;48.10;;;;;;5019715;28;19920;-54
2022/03/21 08:01:59;;;;;;;;;;;18.10;48.20;;;;;;5019977;28;20355;-55
2022/03/21 08:04:25;;;;;;;;;;;18.00;48.20;;;;;;5020116;28;19913;-56
2022/03/21 08:06:53;;;;;;;;;;;18.00;48.40;;;;;;5019826;28;19916;-56
2022/03/21 08:09:18;;;;;;;;;;;18.00;48.40;;;;;;5019007;28;20042;-56
2022/03/21 08:11:43;;;;;;;;;;;18.10;48.40;;;;;;5019317;28;20561;-55
2022/03/21 08:14:09;;;;;;;;;;;18.00;48.10;;;;;;5019727;28;19971;-56
2022/03/21 08:16:35;;;;;;;;;;;18.00;48.30;;;;;;5017722;28;20332;-57
2022/03/21 08:19:00;;;;;;;;;;;18.00;48.30;;;;;;5016878;28;19928;-55
2022/03/21 08:21:26;;;;;;;;;;;18.00;48.50;;;;;;5017751;28;19917;-57
2022/03/21 08:23:51;;;;;;;;;;;18.00;48.70;;;;;;5017206;28;19924;-55
2022/03/21 08:26:17;;;;;;;;;;;18.00;48.50;;;;;;5017951;28;20351;-57
2022/03/21 08:28:44;;;;;;;;;;;18.10;48.40;;;;;;5017424;28;19913;-56
2022/03/21 08:31:12;;;;;;;;;;;18.10;48.30;;;;;;5018775;28;19913;-57
2022/03/21 08:33:38;;;;;;;;;;;18.10;48.20;;;;;;5019576;28;20570;-56
2022/03/21 08:36:03;;;;;;;;;;;18.20;48.20;;;;;;5019654;28;19992;-56
2022/03/21 08:38:29;;;;;;;;;;;18.20;48.20;;;;;;5018073;28;20470;-57
2022/03/21 08:40:56;;;;;;;;;;;18.20;48.20;;;;;;5019146;28;19918;-57
2022/03/21 08:43:21;;;;;;;;;;;18.20;48.10;;;;;;5018858;28;19985;-54
2022/03/21 08:45:48;;;;;;;;;;;18.30;48.20;;;;;;5019076;28;19917;-56
2022/03/21 08:48:13;;;;;;;;;;;18.30;48.10;;;;;;5019245;28;19937;-54
2022/03/21 08:50:39;;;;;;;;;;;18.30;48.00;;;;;;5019196;28;19945;-53
2022/03/21 08:53:05;;;;;;;;;;;18.40;48.00;;;;;;5018436;28;19921;-57
2022/03/21 08:55:30;;;;;;;;;;;18.40;48.00;;;;;;5019213;28;19917;-57
2022/03/21 08:57:56;;;;;;;;;;;18.40;47.90;;;;;;5019744;28;19932;-57
2022/03/21 09:00:21;;;;;;;;;;;18.50;47.90;;;;;;5018381;28;19919;-58
2022/03/21 09:02:49;;;;;;;;;;;18.50;47.80;;;;;;5019227;28;19913;-55
2022/03/21 09:05:14;;;;;;;;;;;18.50;47.70;;;;;;5019200;28;19921;-54
2022/03/21 09:07:40;;;;;;;;;;;18.60;47.70;;;;;;5019624;28;19920;-56
2022/03/21 09:10:06;;;;;;;;;;;18.60;47.70;;;;;;5019080;28;19914;-56
2022/03/21 09:12:32;;;;;;;;;;;18.60;47.60;;;;;;5019105;28;19925;-56
2022/03/21 09:14:57;;;;;;;;;;;18.60;47.60;;;;;;5019319;28;19998;-58
2022/03/21 09:17:23;;;;;;;;;;;18.60;47.70;;;;;;5019003;28;19913;-57
2022/03/21 09:19:49;;;;;;;;;;;18.60;47.60;;;;;;5018970;28;19917;-56
2022/03/21 09:22:14;;;;;;;;;;;18.60;47.60;;;;;;5018864;28;19925;-55
2022/03/21 09:24:40;;;;;;;;;;;18.70;47.70;;;;;;5018292;28;20402;-58
2022/03/21 09:27:05;;;;;;;;;;;18.70;47.60;;;;;;5019694;28;19928;-58
2022/03/21 09:29:31;;;;;;;;;;;18.70;47.60;;;;;;5017822;28;19928;-56
2022/03/21 09:31:56;;;;;;;;;;;18.60;47.60;;;;;;5018908;28;19922;-55
2022/03/21 09:34:22;;;;;;;;;;;18.70;47.70;;;;;;5018548;28;20433;-57
2022/03/21 09:36:47;;;;;;;;;;;18.70;47.60;;;;;;5018683;28;19914;-57
2022/03/21 09:39:14;;;;;;;;;;;18.70;47.60;;;;;;5018808;28;20302;-57
2022/03/21 09:41:39;;;;;;;;;;;18.70;47.60;;;;;;5018746;28;19924;-57
2022/03/21 09:44:09;;;;;;;;;;;18.70;47.60;;;;;;5018825;28;19917;-54
2022/03/21 09:46:39;;;;;;;;;;;18.70;47.60;;;;;;5018779;28;19921;-56
2022/03/21 09:49:05;;;;;;;;;;;18.60;47.50;;;;;;5017926;28;19928;-57
2022/03/21 09:51:31;;;;;;;;;;;18.60;47.70;;;;;;5021761;28;19917;-54
2022/03/21 09:53:57;;;;;;;;;;;18.60;48.30;;;;;;5021638;28;19921;-56
2022/03/21 09:56:22;;;;;;;;;;;18.60;47.70;;;;;;5021975;28;19914;-55
2022/03/21 09:58:48;;;;;;;;;;;18.70;47.80;;;;;;5021240;28;20365;-57
2022/03/21 10:01:13;;;;;;;;;;;18.60;47.70;;;;;;5022780;28;19913;-54
2022/03/21 10:03:39;;;;;;;;;;;18.60;47.70;;;;;;5020445;28;20004;-56
2022/03/21 10:06:23;;;;;;;;;;;18.60;47.80;;;;;;5021636;28;19979;-56
2022/03/21 10:08:48;;;;;;;;;;;18.60;47.90;;;;;;5021349;28;19914;-56
2022/03/21 10:11:14;;;;;;;;;;;18.50;47.90;;;;;;5022339;28;19919;-56
2022/03/21 10:13:39;;;;;;;;;;;18.50;48.00;;;;;;5004082;28;20348;-55
2022/03/21 10:16:09;;;;;;;;;;;18.50;48.00;;;;;;5022157;28;19936;-58
2022/03/21 10:18:35;;;;;;;;;;;18.50;48.00;;;;;;5021225;28;20011;-55
2022/03/21 10:21:10;;;;;;;;;;;18.50;48.10;;;;;;5021540;28;20610;-56
2022/03/21 10:23:36;;;;;;;;;;;18.50;48.10;;;;;;5004023;28;19966;-56
2022/03/21 10:26:03;;;;;;;;;;;18.50;48.10;;;;;;5021395;28;19913;-54
2022/03/21 10:28:32;;;;;;;;;;;18.50;48.10;;;;;;5021425;28;20416;-57
2022/03/21 10:30:58;;;;;;;;;;;18.50;48.10;;;;;;5021712;28;19920;-56
2022/03/21 10:33:24;;;;;;;;;;;18.50;48.20;;;;;;5017235;28;19925;-54
2022/03/21 10:35:49;;;;;;;;;;;18.50;48.20;;;;;;5021664;28;19913;-56
2022/03/21 10:38:15;;;;;;;;;;;18.50;48.30;;;;;;5022020;28;19913;-56
2022/03/21 10:40:41;;;;;;;;;;;18.50;48.40;;;;;;5019813;28;20379;-53
2022/03/21 10:43:07;;;;;;;;;;;18.50;48.40;;;;;;5021179;28;19921;-56
2022/03/21 10:45:40;;;;;;;;;;;18.50;48.40;;;;;;5021502;28;19913;-58
2022/03/21 10:48:06;;;;;;;;;;;18.50;48.40;;;;;;5021814;28;19979;-55
2022/03/21 10:50:32;;;;;;;;;;;18.50;48.50;;;;;;5019765;28;19963;-57
2022/03/21 10:53:08;;;;;;;;;;;18.50;48.40;;;;;;5021307;28;19928;-56
2022/03/21 10:55:34;;;;;;;;;;;18.50;48.40;;;;;;5019845;28;19913;-57
2022/03/21 10:57:59;;;;;;;;;;;18.50;48.30;;;;;;5021300;28;19924;-56
2022/03/21 11:00:28;;;;;;;;;;;18.50;48.40;;;;;;5020823;28;19913;-55
2022/03/21 11:02:57;;;;;;;;;;;18.50;48.30;;;;;;5020554;28;19914;-55
2022/03/21 11:05:23;;;;;;;;;;;18.50;48.40;;;;;;5021222;28;20007;-55
2022/03/21 11:07:48;;;;;;;;;;;18.50;48.40;;;;;;5021365;28;19917;-54
2022/03/21 11:10:14;;;;;;;;;;;18.50;48.50;;;;;;5020132;28;20364;-58
2022/03/21 11:12:41;;;;;;;;;;;18.40;48.50;;;;;;5020706;28;19923;-56
2022/03/21 11:15:07;;;;;;;;;;;18.40;48.50;;;;;;5020163;28;20004;-56
2022/03/21 11:17:32;;;;;;;;;;;18.40;48.40;;;;;;5019479;28;19996;-56
2022/03/21 11:19:58;;;;;;;;;;;18.40;48.60;;;;;;5020381;28;19920;-55
2022/03/21 11:22:23;;;;;;;;;;;18.40;48.50;;;;;;5019062;28;20408;-55
2022/03/21 11:24:49;;;;;;;;;;;18.40;48.20;;;;;;5020678;28;20431;-57
2022/03/21 11:27:27;;;;;;;;;;;18.40;48.30;;;;;;5021004;28;19917;-55
2022/03/21 11:30:00;;;;;;;;;;;18.40;48.30;;;;;;5020878;28;19940;-58
2022/03/21 11:32:32;;;;;;;;;;;18.40;48.10;;;;;;5019224;28;19921;-56
2022/03/21 11:35:09;;;;;;;;;;;18.40;48.00;;;;;;5019403;28;19913;-55
2022/03/21 11:37:34;;;;;;;;;;;18.40;48.00;;;;;;5018817;28;20464;-57
2022/03/21 11:40:18;;;;;;;;;;;18.40;47.90;;;;;;5020239;28;20043;-53
2022/03/21 11:42:44;;;;;;;;;;;18.50;47.90;;;;;;5021032;28;19917;-58
2022/03/21 11:45:25;;;;;;;;;;;18.40;48.00;;;;;;5020676;28;19920;-55
2022/03/21 11:48:10;;;;;;;;;;;18.50;48.30;;;;;;5018733;28;20196;-53
2022/03/21 11:50:36;;;;;;;;;;;18.40;48.30;;;;;;5019774;28;19921;-56
2022/03/21 11:53:07;;;;;;;;;;;18.40;48.30;;;;;;5020601;28;19924;-55
2022/03/21 11:55:41;;;;;;;;;;;18.40;48.50;;;;;;5020333;28;19920;-56
2022/03/21 11:58:29;;;;;;;;;;;18.40;48.50;;;;;;5018836;28;19981;-54
2022/03/21 12:01:04;;;;;;;;;;;18.50;48.50;;;;;;5020048;28;19917;-56
2022/03/21 12:03:29;;;;;;;;;;;18.50;48.40;;;;;;5018513;28;19924;-55
2022/03/21 12:05:55;;;;;;;;;;;18.50;48.40;;;;;;5021012;28;19914;-57
2022/03/21 12:08:33;;;;;;;;;;;18.50;48.30;;;;;;5002161;28;20378;-56
2022/03/21 12:10:59;;;;;;;;;;;18.50;48.20;;;;;;5019147;28;19917;-57
2022/03/21 12:13:24;;;;;;;;;;;18.50;48.20;;;;;;5019437;28;19945;-56
2022/03/21 12:15:50;;;;;;;;;;;18.50;48.20;;;;;;5019832;28;19917;-56
2022/03/21 12:18:16;;;;;;;;;;;18.60;48.30;;;;;;5002261;28;19996;-55
2022/03/21 12:20:46;;;;;;;;;;;18.60;48.20;;;;;;5020170;28;19920;-56
2022/03/21 12:23:18;;;;;;;;;;;18.60;48.10;;;;;;5019897;28;19917;-58
2022/03/21 12:25:53;;;;;;;;;;;18.70;48.10;;;;;;4976145;28;20665;-56
2022/03/21 12:28:21;;;;;;;;;;;18.70;48.10;;;;;;5019717;28;19913;-55
2022/03/21 12:30:48;;;;;;;;;;;18.70;48.10;;;;;;5018826;28;19917;-52
2022/03/21 12:33:13;;;;;;;;;;;18.70;48.10;;;;;;5018453;28;19949;-52
2022/03/21 12:35:43;;;;;;;;;;;18.70;48.00;;;;;;5019351;28;19948;-54
2022/03/21 12:38:11;;;;;;;;;;;18.80;48.10;;;;;;5019382;28;19917;-53
2022/03/21 12:40:46;;;;;;;;;;;18.80;48.10;;;;;;5018691;28;19996;-52
2022/03/21 12:43:11;;;;;;;;;;;18.80;48.00;;;;;;5019230;28;19920;-54
2022/03/21 12:45:37;;;;;;;;;;;18.80;48.00;;;;;;5019052;28;20809;-52
2022/03/21 12:48:05;;;;;;;;;;;18.80;47.90;;;;;;5019529;28;19945;-53
2022/03/21 12:50:30;;;;;;;;;;;18.90;48.00;;;;;;5018584;28;19920;-54
2022/03/21 12:52:57;;;;;;;;;;;18.90;48.00;;;;;;5019694;28;20356;-53
2022/03/21 12:55:23;;;;;;;;;;;18.90;48.00;;;;;;5019355;28;19920;-53
2022/03/21 12:57:54;;;;;;;;;;;18.90;48.00;;;;;;5019830;28;19913;-55
2022/03/21 13:00:21;;;;;;;;;;;18.90;47.90;;;;;;5019040;28;20493;-53
2022/03/21 13:02:47;;;;;;;;;;;18.90;47.90;;;;;;5018215;28;19920;-50
2022/03/21 13:10:42;;;;;;;;;;;19.00;47.90;;;;;;5018892;28;19920;-52
2022/03/21 13:13:08;;;;;;;;;;;19.00;47.90;;;;;;5019476;28;20432;-54
2022/03/21 13:15:35;;;;;;;;;;;19.00;47.90;;;;;;5019040;28;19913;-52
2022/03/21 13:18:01;;;;;;;;;;;19.00;47.90;;;;;;5032827;22;19969;-63
2022/03/21 13:20:40;;;;;;;;;;;19.00;47.90;;;;;;5019419;28;19923;-65
2022/03/21 13:23:06;;;;;;;;;;;19.00;47.90;;;;;;5003116;28;20261;-65
2022/03/21 13:25:35;;;;;;;;;;;19.00;48.00;;;;;;5021940;28;19943;-65
2022/03/21 13:28:09;;;;;;;;;;;18.90;48.00;;;;;;4995023;28;20033;-63
2022/03/21 13:30:35;;;;;;;;;;;18.90;48.10;;;;;;5009436;28;20059;-64
2022/03/21 13:33:00;;;;;;;;;;;18.90;48.10;;;;;;4990192;28;19929;-64
2022/03/21 13:35:25;;;;;;;;;;;18.90;48.10;;;;;;5003152;28;19914;-63
2022/03/21 13:38:04;;;;;;;;;;;18.90;48.20;;;;;;4997625;28;19928;-64
2022/03/21 13:40:30;;;;;;;;;;;19.00;48.20;;;;;;5010186;28;19929;-63
2022/03/21 13:43:01;;;;;;;;;;;18.90;48.20;;;;;;4976703;28;19914;-60
2022/03/21 13:45:27;;;;;;;;;;;19.00;48.40;;;;;;4986651;28;22308;-63
2022/03/21 13:47:53;;;;;;;;;;;18.90;48.30;;;;;;4993275;28;19914;-61
2022/03/21 13:50:27;;;;;;;;;;;19.00;48.50;;;;;;5002607;28;20158;-62
2022/03/21 13:53:01;;;;;;;;;;;19.00;48.40;;;;;;5000327;28;19987;-60
2022/03/21 13:55:27;;;;;;;;;;;18.90;48.30;;;;;;5003711;28;19956;-57
2022/03/21 13:57:53;;;;;;;;;;;19.00;48.30;;;;;;4993218;28;19953;-64
2022/03/21 14:00:25;;;;;;;;;;;19.00;48.30;;;;;;4985956;28;20351;-60
2022/03/21 14:02:51;;;;;;;;;;;19.00;48.30;;;;;;4998369;28;19917;-62
2022/03/21 14:05:20;;;;;;;;;;;18.90;48.30;;;;;;5003097;28;20280;-62
2022/03/21 14:07:47;;;;;;;;;;;19.00;48.30;;;;;;4992889;28;19909;-65
2022/03/21 14:10:19;;;;;;;;;;;19.00;48.40;;;;;;5003004;28;19914;-60
2022/03/21 14:12:48;;;;;;;;;;;18.90;48.30;;;;;;4998329;28;19927;-65
2022/03/21 14:15:14;;;;;;;;;;;18.90;48.40;;;;;;5013596;28;19968;-64
2022/03/21 14:17:39;;;;;;;;;;;18.90;48.40;;;;;;4992273;28;19925;-61
2022/03/21 14:20:05;;;;;;;;;;;18.90;48.50;;;;;;5002846;28;19917;-60
2022/03/21 14:22:31;;;;;;;;;;;18.90;48.60;;;;;;4975565;28;19910;-64
2022/03/21 14:24:56;;;;;;;;;;;18.90;48.60;;;;;;5002347;28;19981;-62
2022/03/21 14:27:22;;;;;;;;;;;18.80;48.50;;;;;;4993373;28;20360;-63
2022/03/21 14:29:47;;;;;;;;;;;18.90;48.60;;;;;;5001750;28;19917;-64
2022/03/21 14:32:13;;;;;;;;;;;18.90;48.60;;;;;;4974457;28;19961;-62
2022/03/21 14:34:38;;;;;;;;;;;18.90;48.60;;;;;;5017163;28;19948;-63
2022/03/21 14:37:04;;;;;;;;;;;18.90;48.60;;;;;;4992699;28;20308;-56
2022/03/21 14:39:29;;;;;;;;;;;18.90;48.70;;;;;;5002089;28;20330;-59